ESNS

Details ICAO ESNS (SFT)
Name Skelleftea
Region Sweden
Timezone Europe/Stockholm (UTC+2.0)
Plans Departing 17
Arriving 20
Stats Elevation 155 ft / 47 m (AMSL)
Location 64.624772° 21.076867°
Runways 1
Magnetic Variation 8.639° E
Sunrise 2018-05-22 00:54:02 UTC / 2018-05-22 02:54:02 Local
Sunset 2018-05-22 20:13:32 UTC / 2018-05-22 22:13:32 Local
Advertisement - Login to hide

Runways

ID Width Length Bearing (true) Bearing (mag) Surface Threshold Offset Overrun Length
10 148 ft / 45 m 6,872 ft / 2,095 m 106.26° 97.62° Asphalt 0 ft / 0 m 0 ft / 0 m
28 148 ft / 45 m 6,872 ft / 2,095 m 286.30° 277.66° Asphalt 0 ft / 0 m 0 ft / 0 m

Approach Navaids

Runway Type Ident Frequency Range Bearing (true) Bearing (mag) Slope Elevation
28 Localiser NS 109.50 MHz 18 nm / 33 km 286.26° 277.62° - 155 ft / 47 m (AMSL)
28 Glidescope NS 109.50 MHz 10 nm / 19 km 286.28° 277.64° 3.00° 155 ft / 47 m (AMSL)

Map

Weather


0- 5 10 15 20 25 30 35+ Temperature / ° C

Clouds and Precipitation
Forecast for 2018-05-22 00:00 UTC. Updated 5 hours ago

Ground ~20,000 ft ~40,000 ft Winds

METAR

ESNS 220420Z 08005KT CAVOK 12/08 Q1022

TAF

Not found

Frequencies

Tower 122.05 MHz TWR
Warning: Do not use this data for real-world aviation or navigation. No guarantee of current accuracy is given.